sensor_id;sensor_type;location;lat;lon;timestamp;temperature;humidity
38241;DHT22;24037;49.536;8.500;2024-02-04T00:00:18;8.90;99.90
38241;DHT22;24037;49.536;8.500;2024-02-04T00:02:44;8.90;99.30
38241;DHT22;24037;49.536;8.500;2024-02-04T00:05:10;9.00;97.40
38241;DHT22;24037;49.536;8.500;2024-02-04T00:07:36;9.00;93.60
38241;DHT22;24037;49.536;8.500;2024-02-04T00:10:02;9.00;86.00
38241;DHT22;24037;49.536;8.500;2024-02-04T00:12:29;9.00;75.30
38241;DHT22;24037;49.536;8.500;2024-02-04T00:14:55;9.10;61.60
38241;DHT22;24037;49.536;8.500;2024-02-04T00:17:21;9.10;59.50
38241;DHT22;24037;49.536;8.500;2024-02-04T00:19:47;9.10;54.60
38241;DHT22;24037;49.536;8.500;2024-02-04T00:22:13;9.10;50.20
38241;DHT22;24037;49.536;8.500;2024-02-04T00:24:43;9.10;53.20
38241;DHT22;24037;49.536;8.500;2024-02-04T00:27:09;9.00;49.30
38241;DHT22;24037;49.536;8.500;2024-02-04T00:29:35;9.00;48.80
38241;DHT22;24037;49.536;8.500;2024-02-04T00:32:01;9.00;53.30
38241;DHT22;24037;49.536;8.500;2024-02-04T00:34:27;9.00;58.00
38241;DHT22;24037;49.536;8.500;2024-02-04T00:36:54;9.00;61.70
38241;DHT22;24037;49.536;8.500;2024-02-04T00:39:20;8.90;65.80
38241;DHT22;24037;49.536;8.500;2024-02-04T00:41:46;8.90;71.70
38241;DHT22;24037;49.536;8.500;2024-02-04T00:44:13;8.90;73.80
38241;DHT22;24037;49.536;8.500;2024-02-04T00:46:39;8.90;73.10
38241;DHT22;24037;49.536;8.500;2024-02-04T00:49:05;8.90;76.40
38241;DHT22;24037;49.536;8.500;2024-02-04T00:51:32;8.90;85.80
38241;DHT22;24037;49.536;8.500;2024-02-04T00:53:58;8.80;90.00
38241;DHT22;24037;49.536;8.500;2024-02-04T00:56:25;8.80;91.10
38241;DHT22;24037;49.536;8.500;2024-02-04T00:58:51;8.80;94.00
38241;DHT22;24037;49.536;8.500;2024-02-04T01:01:17;8.80;97.40
38241;DHT22;24037;49.536;8.500;2024-02-04T01:03:46;8.70;99.90
38241;DHT22;24037;49.536;8.500;2024-02-04T01:06:12;8.80;99.90
38241;DHT22;24037;49.536;8.500;2024-02-04T01:08:39;8.80;99.90
38241;DHT22;24037;49.536;8.500;2024-02-04T01:11:05;8.80;99.90
38241;DHT22;24037;49.536;8.500;2024-02-04T01:13:31;8.70;99.90
38241;DHT22;24037;49.536;8.500;2024-02-04T01:15:58;8.70;99.90
38241;DHT22;24037;49.536;8.500;2024-02-04T01:18:24;8.70;99.90
38241;DHT22;24037;49.536;8.500;2024-02-04T01:20:50;8.70;99.90
38241;DHT22;24037;49.536;8.500;2024-02-04T01:23:16;8.70;99.90
38241;DHT22;24037;49.536;8.500;2024-02-04T01:25:44;8.70;99.90
38241;DHT22;24037;49.536;8.500;2024-02-04T01:28:10;8.60;99.90
38241;DHT22;24037;49.536;8.500;2024-02-04T01:30:36;8.60;99.90
38241;DHT22;24037;49.536;8.500;2024-02-04T01:33:03;8.60;99.90
38241;DHT22;24037;49.536;8.500;2024-02-04T01:35:29;8.60;99.90
38241;DHT22;24037;49.536;8.500;2024-02-04T01:37:56;8.60;99.90
38241;DHT22;24037;49.536;8.500;2024-02-04T01:40:22;8.60;99.90
38241;DHT22;24037;49.536;8.500;2024-02-04T01:42:48;8.60;99.90
38241;DHT22;24037;49.536;8.500;2024-02-04T01:45:15;8.60;99.90
38241;DHT22;24037;49.536;8.500;2024-02-04T01:47:41;8.60;99.90
38241;DHT22;24037;49.536;8.500;2024-02-04T01:50:08;8.60;99.90
38241;DHT22;24037;49.536;8.500;2024-02-04T01:52:38;8.60;99.90
38241;DHT22;24037;49.536;8.500;2024-02-04T01:55:05;8.60;99.90
38241;DHT22;24037;49.536;8.500;2024-02-04T01:57:32;8.50;99.90
38241;DHT22;24037;49.536;8.500;2024-02-04T02:00:00;8.50;99.90
38241;DHT22;24037;49.536;8.500;2024-02-04T02:02:26;8.50;99.90
38241;DHT22;24037;49.536;8.500;2024-02-04T02:04:53;8.60;99.90
38241;DHT22;24037;49.536;8.500;2024-02-04T02:07:19;8.60;99.90
38241;DHT22;24037;49.536;8.500;2024-02-04T02:09:50;8.60;99.90
38241;DHT22;24037;49.536;8.500;2024-02-04T02:12:29;8.70;99.90
38241;DHT22;24037;49.536;8.500;2024-02-04T02:15:24;8.70;99.90
38241;DHT22;24037;49.536;8.500;2024-02-04T02:17:57;8.80;99.90
38241;DHT22;24037;49.536;8.500;2024-02-04T02:20:40;8.90;99.90
38241;DHT22;24037;49.536;8.500;2024-02-04T02:23:14;8.90;93.40
38241;DHT22;24037;49.536;8.500;2024-02-04T02:25:40;9.00;74.90
38241;DHT22;24037;49.536;8.500;2024-02-04T02:28:07;9.00;68.30
38241;DHT22;24037;49.536;8.500;2024-02-04T02:30:33;9.00;63.20
38241;DHT22;24037;49.536;8.500;2024-02-04T02:32:59;9.00;66.90
38241;DHT22;24037;49.536;8.500;2024-02-04T02:35:26;9.00;65.70
38241;DHT22;24037;49.536;8.500;2024-02-04T02:38:02;9.00;56.50
38241;DHT22;24037;49.536;8.500;2024-02-04T02:40:46;9.10;50.80
38241;DHT22;24037;49.536;8.500;2024-02-04T02:43:13;9.00;52.70
38241;DHT22;24037;49.536;8.500;2024-02-04T02:45:42;9.00;47.30
38241;DHT22;24037;49.536;8.500;2024-02-04T02:48:09;9.00;44.70
38241;DHT22;24037;49.536;8.500;2024-02-04T02:50:37;9.00;42.80
38241;DHT22;24037;49.536;8.500;2024-02-04T02:53:03;9.00;37.40
38241;DHT22;24037;49.536;8.500;2024-02-04T02:55:29;9.10;23.60
38241;DHT22;24037;49.536;8.500;2024-02-04T02:57:56;9.10;23.00
38241;DHT22;24037;49.536;8.500;2024-02-04T03:00:22;9.10;21.30
38241;DHT22;24037;49.536;8.500;2024-02-04T03:02:48;9.00;24.60
38241;DHT22;24037;49.536;8.500;2024-02-04T03:05:18;9.00;24.40
38241;DHT22;24037;49.536;8.500;2024-02-04T03:07:45;9.00;27.20
38241;DHT22;24037;49.536;8.500;2024-02-04T03:10:11;9.00;32.30
38241;DHT22;24037;49.536;8.500;2024-02-04T03:12:37;9.00;29.60
38241;DHT22;24037;49.536;8.500;2024-02-04T03:15:04;9.00;30.00
38241;DHT22;24037;49.536;8.500;2024-02-04T03:17:30;9.00;29.70
38241;DHT22;24037;49.536;8.500;2024-02-04T03:19:56;9.00;27.00
38241;DHT22;24037;49.536;8.500;2024-02-04T03:22:23;9.00;29.60
38241;DHT22;24037;49.536;8.500;2024-02-04T03:24:49;9.00;30.50
38241;DHT22;24037;49.536;8.500;2024-02-04T03:27:20;8.90;31.90
38241;DHT22;24037;49.536;8.500;2024-02-04T03:29:47;8.90;33.70
38241;DHT22;24037;49.536;8.500;2024-02-04T03:32:14;8.90;37.30
38241;DHT22;24037;49.536;8.500;2024-02-04T03:34:43;9.00;40.20
38241;DHT22;24037;49.536;8.500;2024-02-04T03:37:09;9.00;42.20
38241;DHT22;24037;49.536;8.500;2024-02-04T03:39:36;9.00;34.00
38241;DHT22;24037;49.536;8.500;2024-02-04T03:42:02;9.00;25.90
38241;DHT22;24037;49.536;8.500;2024-02-04T03:44:29;9.00;23.40
38241;DHT22;24037;49.536;8.500;2024-02-04T03:46:55;9.00;27.00
38241;DHT22;24037;49.536;8.500;2024-02-04T03:49:21;9.00;34.50
38241;DHT22;24037;49.536;8.500;2024-02-04T03:51:47;8.90;43.00
38241;DHT22;24037;49.536;8.500;2024-02-04T03:54:14;8.90;47.90
38241;DHT22;24037;49.536;8.500;2024-02-04T03:56:40;8.90;58.50
38241;DHT22;24037;49.536;8.500;2024-02-04T03:59:10;9.00;45.80
38241;DHT22;24037;49.536;8.500;2024-02-04T04:01:37;9.00;35.90
38241;DHT22;24037;49.536;8.500;2024-02-04T04:04:03;9.10;23.60
38241;DHT22;24037;49.536;8.500;2024-02-04T04:06:29;9.00;23.60
38241;DHT22;24037;49.536;8.500;2024-02-04T04:08:55;9.00;16.80
38241;DHT22;24037;49.536;8.500;2024-02-04T04:11:24;9.10;14.70
38241;DHT22;24037;49.536;8.500;2024-02-04T04:13:51;9.00;16.90
38241;DHT22;24037;49.536;8.500;2024-02-04T04:16:20;9.00;20.70
38241;DHT22;24037;49.536;8.500;2024-02-04T04:18:47;9.00;20.00
38241;DHT22;24037;49.536;8.500;2024-02-04T04:21:13;9.00;24.60
38241;DHT22;24037;49.536;8.500;2024-02-04T04:23:39;9.00;27.40
38241;DHT22;24037;49.536;8.500;2024-02-04T04:26:05;9.00;21.10
38241;DHT22;24037;49.536;8.500;2024-02-04T04:28:31;9.00;20.90
38241;DHT22;24037;49.536;8.500;2024-02-04T04:30:57;9.00;17.90
38241;DHT22;24037;49.536;8.500;2024-02-04T04:33:24;9.00;21.20
38241;DHT22;24037;49.536;8.500;2024-02-04T04:35:50;9.00;21.70
38241;DHT22;24037;49.536;8.500;2024-02-04T04:38:16;9.00;20.00
38241;DHT22;24037;49.536;8.500;2024-02-04T04:40:42;9.00;18.40
38241;DHT22;24037;49.536;8.500;2024-02-04T04:43:08;9.00;18.70
38241;DHT22;24037;49.536;8.500;2024-02-04T04:45:34;9.00;22.20
38241;DHT22;24037;49.536;8.500;2024-02-04T04:48:01;9.00;13.90
38241;DHT22;24037;49.536;8.500;2024-02-04T04:50:27;9.00;12.90
38241;DHT22;24037;49.536;8.500;2024-02-04T04:52:53;9.00;14.50
38241;DHT22;24037;49.536;8.500;2024-02-04T04:55:19;9.00;20.10
38241;DHT22;24037;49.536;8.500;2024-02-04T04:57:46;9.00;15.20
38241;DHT22;24037;49.536;8.500;2024-02-04T05:00:12;9.00;15.60
38241;DHT22;24037;49.536;8.500;2024-02-04T05:02:42;9.00;14.00
38241;DHT22;24037;49.536;8.500;2024-02-04T05:05:12;9.10;9.50
38241;DHT22;24037;49.536;8.500;2024-02-04T05:07:39;9.10;13.60
38241;DHT22;24037;49.536;8.500;2024-02-04T05:10:06;9.00;13.90
38241;DHT22;24037;49.536;8.500;2024-02-04T05:12:33;9.00;14.10
38241;DHT22;24037;49.536;8.500;2024-02-04T05:14:59;9.00;16.80
38241;DHT22;24037;49.536;8.500;2024-02-04T05:17:26;9.10;17.50
38241;DHT22;24037;49.536;8.500;2024-02-04T05:19:52;9.00;19.90
38241;DHT22;24037;49.536;8.500;2024-02-04T05:22:19;9.00;18.50
38241;DHT22;24037;49.536;8.500;2024-02-04T05:24:45;9.00;23.20
38241;DHT22;24037;49.536;8.500;2024-02-04T05:27:11;9.00;21.10
38241;DHT22;24037;49.536;8.500;2024-02-04T05:29:37;9.00;20.10
38241;DHT22;24037;49.536;8.500;2024-02-04T05:32:03;9.00;24.70
38241;DHT22;24037;49.536;8.500;2024-02-04T05:34:30;9.00;21.90
38241;DHT22;24037;49.536;8.500;2024-02-04T05:36:57;9.00;23.80
38241;DHT22;24037;49.536;8.500;2024-02-04T05:39:23;9.00;21.40
38241;DHT22;24037;49.536;8.500;2024-02-04T05:41:50;9.00;21.00
38241;DHT22;24037;49.536;8.500;2024-02-04T05:44:16;8.90;16.60
38241;DHT22;24037;49.536;8.500;2024-02-04T05:46:42;8.90;15.90
38241;DHT22;24037;49.536;8.500;2024-02-04T05:49:08;8.90;13.00
38241;DHT22;24037;49.536;8.500;2024-02-04T05:51:38;8.90;14.50
38241;DHT22;24037;49.536;8.500;2024-02-04T05:54:08;8.90;16.10
38241;DHT22;24037;49.536;8.500;2024-02-04T05:56:35;8.90;22.40
38241;DHT22;24037;49.536;8.500;2024-02-04T05:59:01;8.90;22.10
38241;DHT22;24037;49.536;8.500;2024-02-04T06:01:27;8.90;20.60
38241;DHT22;24037;49.536;8.500;2024-02-04T06:03:53;8.90;20.70
38241;DHT22;24037;49.536;8.500;2024-02-04T06:06:19;8.90;11.10
38241;DHT22;24037;49.536;8.500;2024-02-04T06:08:46;9.00;10.40
38241;DHT22;24037;49.536;8.500;2024-02-04T06:11:13;8.90;13.20
38241;DHT22;24037;49.536;8.500;2024-02-04T06:13:41;8.90;19.70
38241;DHT22;24037;49.536;8.500;2024-02-04T06:16:07;8.90;25.60
38241;DHT22;24037;49.536;8.500;2024-02-04T06:18:36;8.80;23.40
38241;DHT22;24037;49.536;8.500;2024-02-04T06:21:07;8.90;14.20
38241;DHT22;24037;49.536;8.500;2024-02-04T06:23:33;8.90;1.80
38241;DHT22;24037;49.536;8.500;2024-02-04T06:26:00;8.90;1.00
38241;DHT22;24037;49.536;8.500;2024-02-04T06:28:27;8.90;2.30
38241;DHT22;24037;49.536;8.500;2024-02-04T06:30:53;8.90;2.40
38241;DHT22;24037;49.536;8.500;2024-02-04T06:33:20;8.90;2.30
38241;DHT22;24037;49.536;8.500;2024-02-04T06:35:46;8.90;3.70
38241;DHT22;24037;49.536;8.500;2024-02-04T06:38:12;8.80;9.50
38241;DHT22;24037;49.536;8.500;2024-02-04T06:40:38;8.80;9.40
38241;DHT22;24037;49.536;8.500;2024-02-04T06:43:05;8.80;12.90
38241;DHT22;24037;49.536;8.500;2024-02-04T06:45:31;8.80;15.30
38241;DHT22;24037;49.536;8.500;2024-02-04T06:47:57;8.70;16.00
38241;DHT22;24037;49.536;8.500;2024-02-04T06:50:23;8.80;18.80
38241;DHT22;24037;49.536;8.500;2024-02-04T06:52:49;8.70;12.30
38241;DHT22;24037;49.536;8.500;2024-02-04T06:55:15;8.80;14.20
38241;DHT22;24037;49.536;8.500;2024-02-04T06:57:41;8.80;14.20
38241;DHT22;24037;49.536;8.500;2024-02-04T07:00:08;8.80;18.20
38241;DHT22;24037;49.536;8.500;2024-02-04T07:02:35;8.80;21.30
38241;DHT22;24037;49.536;8.500;2024-02-04T07:05:01;8.70;21.70
38241;DHT22;24037;49.536;8.500;2024-02-04T07:07:27;8.70;23.90
38241;DHT22;24037;49.536;8.500;2024-02-04T07:09:53;8.70;17.10
38241;DHT22;24037;49.536;8.500;2024-02-04T07:12:19;8.80;10.50
38241;DHT22;24037;49.536;8.500;2024-02-04T07:14:46;8.80;10.30
38241;DHT22;24037;49.536;8.500;2024-02-04T07:17:12;8.80;10.30
38241;DHT22;24037;49.536;8.500;2024-02-04T07:19:38;8.70;23.40
38241;DHT22;24037;49.536;8.500;2024-02-04T07:22:04;8.60;47.50
38241;DHT22;24037;49.536;8.500;2024-02-04T07:24:31;8.60;74.60
38241;DHT22;24037;49.536;8.500;2024-02-04T07:26:57;8.50;92.80
38241;DHT22;24037;49.536;8.500;2024-02-04T07:29:23;8.50;99.90
38241;DHT22;24037;49.536;8.500;2024-02-04T07:31:49;8.40;99.90
38241;DHT22;24037;49.536;8.500;2024-02-04T07:34:16;8.40;99.90
38241;DHT22;24037;49.536;8.500;2024-02-04T07:36:42;8.40;99.90
38241;DHT22;24037;49.536;8.500;2024-02-04T07:39:09;8.40;99.90
38241;DHT22;24037;49.536;8.500;2024-02-04T07:41:36;8.40;99.90
38241;DHT22;24037;49.536;8.500;2024-02-04T07:44:03;8.40;99.90
38241;DHT22;24037;49.536;8.500;2024-02-04T07:46:29;8.40;99.90
38241;DHT22;24037;49.536;8.500;2024-02-04T07:48:55;8.30;99.90
38241;DHT22;24037;49.536;8.500;2024-02-04T07:51:21;8.30;99.90
38241;DHT22;24037;49.536;8.500;2024-02-04T07:53:50;8.30;99.90
38241;DHT22;24037;49.536;8.500;2024-02-04T07:56:17;8.30;99.90
38241;DHT22;24037;49.536;8.500;2024-02-04T07:58:43;8.30;99.90
38241;DHT22;24037;49.536;8.500;2024-02-04T08:01:09;8.20;99.90
38241;DHT22;24037;49.536;8.500;2024-02-04T08:03:35;8.20;99.90
38241;DHT22;24037;49.536;8.500;2024-02-04T08:06:01;8.20;99.90
38241;DHT22;24037;49.536;8.500;2024-02-04T08:08:28;8.20;99.90
38241;DHT22;24037;49.536;8.500;2024-02-04T08:10:54;8.30;99.90
38241;DHT22;24037;49.536;8.500;2024-02-04T08:13:21;8.30;99.90
38241;DHT22;24037;49.536;8.500;2024-02-04T08:15:47;8.30;99.90
38241;DHT22;24037;49.536;8.500;2024-02-04T08:18:13;8.30;99.90
38241;DHT22;24037;49.536;8.500;2024-02-04T08:20:39;8.40;99.90
38241;DHT22;24037;49.536;8.500;2024-02-04T08:23:05;8.40;99.90
38241;DHT22;24037;49.536;8.500;2024-02-04T08:25:32;8.40;99.90
38241;DHT22;24037;49.536;8.500;2024-02-04T08:27:58;8.40;99.90
38241;DHT22;24037;49.536;8.500;2024-02-04T08:30:24;8.40;99.90
38241;DHT22;24037;49.536;8.500;2024-02-04T08:32:51;8.40;99.90
38241;DHT22;24037;49.536;8.500;2024-02-04T08:35:17;8.40;99.90
38241;DHT22;24037;49.536;8.500;2024-02-04T08:37:43;8.40;99.90
38241;DHT22;24037;49.536;8.500;2024-02-04T08:40:10;8.40;99.90
38241;DHT22;24037;49.536;8.500;2024-02-04T08:42:36;8.40;99.90
38241;DHT22;24037;49.536;8.500;2024-02-04T08:45:02;8.40;99.90
38241;DHT22;24037;49.536;8.500;2024-02-04T08:47:29;8.40;99.90
38241;DHT22;24037;49.536;8.500;2024-02-04T08:49:55;8.40;99.90
38241;DHT22;24037;49.536;8.500;2024-02-04T08:52:21;8.40;99.90
38241;DHT22;24037;49.536;8.500;2024-02-04T08:54:47;8.40;99.90
38241;DHT22;24037;49.536;8.500;2024-02-04T08:57:14;8.40;99.90
38241;DHT22;24037;49.536;8.500;2024-02-04T08:59:40;8.50;99.90
38241;DHT22;24037;49.536;8.500;2024-02-04T09:02:06;8.50;99.90
38241;DHT22;24037;49.536;8.500;2024-02-04T09:04:32;8.60;98.60
38241;DHT22;24037;49.536;8.500;2024-02-04T09:07:09;8.60;93.50
38241;DHT22;24037;49.536;8.500;2024-02-04T09:09:35;8.70;79.70
38241;DHT22;24037;49.536;8.500;2024-02-04T09:12:01;8.80;53.20
38241;DHT22;24037;49.536;8.500;2024-02-04T09:14:27;8.80;45.30
38241;DHT22;24037;49.536;8.500;2024-02-04T09:16:54;8.90;39.30
38241;DHT22;24037;49.536;8.500;2024-02-04T09:19:20;9.10;19.80
38241;DHT22;24037;49.536;8.500;2024-02-04T09:21:46;9.10;3.00
38241;DHT22;24037;49.536;8.500;2024-02-04T09:24:12;9.30;1.00
38241;DHT22;24037;49.536;8.500;2024-02-04T09:26:38;9.40;1.00
38241;DHT22;24037;49.536;8.500;2024-02-04T09:29:05;9.50;1.00
38241;DHT22;24037;49.536;8.500;2024-02-04T09:31:31;9.70;1.00
38241;DHT22;24037;49.536;8.500;2024-02-04T09:33:57;9.90;1.00
38241;DHT22;24037;49.536;8.500;2024-02-04T09:36:24;10.00;99.90
38241;DHT22;24037;49.536;8.500;2024-02-04T09:38:53;10.10;99.90
38241;DHT22;24037;49.536;8.500;2024-02-04T09:41:20;10.10;99.90
38241;DHT22;24037;49.536;8.500;2024-02-04T09:43:46;10.20;99.90
38241;DHT22;24037;49.536;8.500;2024-02-04T09:46:13;10.20;99.90
38241;DHT22;24037;49.536;8.500;2024-02-04T09:48:39;10.30;99.90
38241;DHT22;24037;49.536;8.500;2024-02-04T09:51:07;10.30;99.90
38241;DHT22;24037;49.536;8.500;2024-02-04T09:53:34;10.40;99.90
38241;DHT22;24037;49.536;8.500;2024-02-04T09:56:02;10.50;99.90
38241;DHT22;24037;49.536;8.500;2024-02-04T09:58:29;10.60;99.90
38241;DHT22;24037;49.536;8.500;2024-02-04T10:00:56;10.70;99.90
38241;DHT22;24037;49.536;8.500;2024-02-04T10:03:23;10.60;99.90
38241;DHT22;24037;49.536;8.500;2024-02-04T10:05:49;10.60;99.90
38241;DHT22;24037;49.536;8.500;2024-02-04T10:08:15;10.60;99.90
38241;DHT22;24037;49.536;8.500;2024-02-04T10:10:42;10.70;99.90
38241;DHT22;24037;49.536;8.500;2024-02-04T10:13:08;10.80;99.90
38241;DHT22;24037;49.536;8.500;2024-02-04T10:15:35;11.00;99.90
38241;DHT22;24037;49.536;8.500;2024-02-04T10:18:06;11.10;99.90
38241;DHT22;24037;49.536;8.500;2024-02-04T10:20:34;10.90;99.90
38241;DHT22;24037;49.536;8.500;2024-02-04T10:23:00;10.70;99.90
38241;DHT22;24037;49.536;8.500;2024-02-04T10:25:26;10.60;99.90
38241;DHT22;24037;49.536;8.500;2024-02-04T10:27:53;10.70;99.90
38241;DHT22;24037;49.536;8.500;2024-02-04T10:30:20;10.70;99.90
38241;DHT22;24037;49.536;8.500;2024-02-04T10:32:56;10.80;99.90
38241;DHT22;24037;49.536;8.500;2024-02-04T10:35:23;10.90;99.90
38241;DHT22;24037;49.536;8.500;2024-02-04T10:37:50;11.00;99.90
38241;DHT22;24037;49.536;8.500;2024-02-04T10:40:17;11.20;99.90
38241;DHT22;24037;49.536;8.500;2024-02-04T10:42:43;11.20;99.90
38241;DHT22;24037;49.536;8.500;2024-02-04T10:45:11;11.30;99.90
38241;DHT22;24037;49.536;8.500;2024-02-04T10:47:38;11.20;98.80
38241;DHT22;24037;49.536;8.500;2024-02-04T10:50:05;11.10;99.90
38241;DHT22;24037;49.536;8.500;2024-02-04T10:52:44;11.00;99.90
38241;DHT22;24037;49.536;8.500;2024-02-04T10:55:12;10.90;99.90
38241;DHT22;24037;49.536;8.500;2024-02-04T10:57:40;10.90;99.90
38241;DHT22;24037;49.536;8.500;2024-02-04T11:00:07;10.90;99.90
38241;DHT22;24037;49.536;8.500;2024-02-04T11:02:35;10.80;99.90
38241;DHT22;24037;49.536;8.500;2024-02-04T11:05:03;11.00;99.90
38241;DHT22;24037;49.536;8.500;2024-02-04T11:07:34;11.00;99.90
38241;DHT22;24037;49.536;8.500;2024-02-04T11:10:01;11.10;99.90
38241;DHT22;24037;49.536;8.500;2024-02-04T11:12:30;11.00;99.90
38241;DHT22;24037;49.536;8.500;2024-02-04T11:15:01;11.00;99.90
38241;DHT22;24037;49.536;8.500;2024-02-04T11:17:57;11.00;99.90
38241;DHT22;24037;49.536;8.500;2024-02-04T11:26:19;10.90;99.90
38241;DHT22;24037;49.536;8.500;2024-02-04T11:28:45;10.90;99.90
38241;DHT22;24037;49.536;8.500;2024-02-04T11:31:17;10.80;99.90
38241;DHT22;24037;49.536;8.500;2024-02-04T11:33:44;10.80;99.90
38241;DHT22;24037;49.536;8.500;2024-02-04T11:36:14;10.70;99.90
38241;DHT22;24037;49.536;8.500;2024-02-04T11:38:41;10.70;99.90
38241;DHT22;24037;49.536;8.500;2024-02-04T11:41:07;10.80;99.90
38241;DHT22;24037;49.536;8.500;2024-02-04T11:43:35;10.80;99.90
38241;DHT22;24037;49.536;8.500;2024-02-04T11:46:05;10.80;99.90
38241;DHT22;24037;49.536;8.500;2024-02-04T11:48:33;10.90;99.90
38241;DHT22;24037;49.536;8.500;2024-02-04T11:50:59;10.90;99.90
38241;DHT22;24037;49.536;8.500;2024-02-04T11:53:29;10.90;99.90
38241;DHT22;24037;49.536;8.500;2024-02-04T11:55:59;11.00;99.90
38241;DHT22;24037;49.536;8.500;2024-02-04T11:58:27;11.00;99.90
38241;DHT22;24037;49.536;8.500;2024-02-04T12:00:56;10.90;99.90
38241;DHT22;24037;49.536;8.500;2024-02-04T12:03:33;11.00;99.90
38241;DHT22;24037;49.536;8.500;2024-02-04T12:05:59;11.30;99.90
38241;DHT22;24037;49.536;8.500;2024-02-04T12:08:28;11.50;77.30
38241;DHT22;24037;49.536;8.500;2024-02-04T12:10:54;11.60;75.10
38241;DHT22;24037;49.536;8.500;2024-02-04T12:13:21;11.50;64.60
38241;DHT22;24037;49.536;8.500;2024-02-04T12:15:47;11.40;89.50
38241;DHT22;24037;49.536;8.500;2024-02-04T12:18:14;11.40;95.40
38241;DHT22;24037;49.536;8.500;2024-02-04T12:20:43;11.40;99.90
38241;DHT22;24037;49.536;8.500;2024-02-04T12:23:10;11.50;95.90
38241;DHT22;24037;49.536;8.500;2024-02-04T12:25:36;11.70;72.70
38241;DHT22;24037;49.536;8.500;2024-02-04T12:30:55;11.70;56.10
38241;DHT22;24037;49.536;8.500;2024-02-04T12:33:21;11.60;56.60
38241;DHT22;24037;49.536;8.500;2024-02-04T12:35:51;11.60;52.90
38241;DHT22;24037;49.536;8.500;2024-02-04T12:38:18;11.70;66.10
38241;DHT22;24037;49.536;8.500;2024-02-04T12:40:44;11.80;31.00
38241;DHT22;24037;49.536;8.500;2024-02-04T12:43:11;11.60;68.80
38241;DHT22;24037;49.536;8.500;2024-02-04T12:45:37;11.50;72.50
38241;DHT22;24037;49.536;8.500;2024-02-04T12:48:04;11.40;91.80
38241;DHT22;24037;49.536;8.500;2024-02-04T12:50:30;11.30;94.30
38241;DHT22;24037;49.536;8.500;2024-02-04T12:53:03;11.20;99.90
38241;DHT22;24037;49.536;8.500;2024-02-04T12:55:31;11.10;99.90
38241;DHT22;24037;49.536;8.500;2024-02-04T12:58:09;11.10;99.90
38241;DHT22;24037;49.536;8.500;2024-02-04T13:00:36;11.10;99.90
38241;DHT22;24037;49.536;8.500;2024-02-04T13:03:03;11.10;99.90
38241;DHT22;24037;49.536;8.500;2024-02-04T13:05:30;11.00;99.90
38241;DHT22;24037;49.536;8.500;2024-02-04T13:07:58;11.10;99.90
38241;DHT22;24037;49.536;8.500;2024-02-04T13:10:26;11.10;99.90
38241;DHT22;24037;49.536;8.500;2024-02-04T13:13:19;11.10;99.90
38241;DHT22;24037;49.536;8.500;2024-02-04T13:15:46;11.10;99.90
38241;DHT22;24037;49.536;8.500;2024-02-04T13:18:12;11.10;99.90
38241;DHT22;24037;49.536;8.500;2024-02-04T13:20:41;11.10;99.90
38241;DHT22;24037;49.536;8.500;2024-02-04T13:23:08;11.10;99.90
38241;DHT22;24037;49.536;8.500;2024-02-04T13:25:34;11.10;99.90
38241;DHT22;24037;49.536;8.500;2024-02-04T13:28:00;10.90;99.90
38241;DHT22;24037;49.536;8.500;2024-02-04T13:30:27;11.00;99.90
38241;DHT22;24037;49.536;8.500;2024-02-04T13:32:54;11.00;99.90
38241;DHT22;24037;49.536;8.500;2024-02-04T13:35:20;11.00;99.90
38241;DHT22;24037;49.536;8.500;2024-02-04T13:37:47;11.00;99.90
38241;DHT22;24037;49.536;8.500;2024-02-04T13:40:18;11.10;99.90
38241;DHT22;24037;49.536;8.500;2024-02-04T13:42:45;11.10;99.90
38241;DHT22;24037;49.536;8.500;2024-02-04T13:45:12;11.10;99.90
38241;DHT22;24037;49.536;8.500;2024-02-04T13:47:42;11.20;99.90
38241;DHT22;24037;49.536;8.500;2024-02-04T13:50:09;11.20;99.90
38241;DHT22;24037;49.536;8.500;2024-02-04T13:52:36;11.30;99.90
38241;DHT22;24037;49.536;8.500;2024-02-04T13:55:03;11.30;99.90
38241;DHT22;24037;49.536;8.500;2024-02-04T13:57:35;11.40;99.90
38241;DHT22;24037;49.536;8.500;2024-02-04T14:00:03;11.30;99.90
38241;DHT22;24037;49.536;8.500;2024-02-04T14:02:30;11.30;99.90
38241;DHT22;24037;49.536;8.500;2024-02-04T14:04:57;11.30;99.90
38241;DHT22;24037;49.536;8.500;2024-02-04T14:07:25;11.20;99.90
38241;DHT22;24037;49.536;8.500;2024-02-04T14:09:51;11.10;99.90
38241;DHT22;24037;49.536;8.500;2024-02-04T14:12:17;11.20;99.90
38241;DHT22;24037;49.536;8.500;2024-02-04T14:14:44;11.20;99.90
38241;DHT22;24037;49.536;8.500;2024-02-04T14:17:10;11.20;99.90
38241;DHT22;24037;49.536;8.500;2024-02-04T14:19:36;11.20;99.90
38241;DHT22;24037;49.536;8.500;2024-02-04T14:22:02;11.20;99.90
38241;DHT22;24037;49.536;8.500;2024-02-04T14:24:29;11.20;99.90
38241;DHT22;24037;49.536;8.500;2024-02-04T14:26:58;11.20;99.90
38241;DHT22;24037;49.536;8.500;2024-02-04T14:29:25;11.10;99.90
38241;DHT22;24037;49.536;8.500;2024-02-04T14:31:54;11.10;99.90
38241;DHT22;24037;49.536;8.500;2024-02-04T14:34:21;11.00;99.90
38241;DHT22;24037;49.536;8.500;2024-02-04T14:36:48;11.00;99.90
38241;DHT22;24037;49.536;8.500;2024-02-04T14:39:15;11.00;99.90
38241;DHT22;24037;49.536;8.500;2024-02-04T14:41:41;10.90;99.90
38241;DHT22;24037;49.536;8.500;2024-02-04T14:44:07;10.80;99.90
38241;DHT22;24037;49.536;8.500;2024-02-04T14:46:36;10.80;99.90
38241;DHT22;24037;49.536;8.500;2024-02-04T14:49:03;10.80;99.90
38241;DHT22;24037;49.536;8.500;2024-02-04T14:51:30;10.80;99.90
38241;DHT22;24037;49.536;8.500;2024-02-04T14:53:59;10.80;99.90
38241;DHT22;24037;49.536;8.500;2024-02-04T14:56:26;10.80;99.90
38241;DHT22;24037;49.536;8.500;2024-02-04T14:58:53;10.80;99.90
38241;DHT22;24037;49.536;8.500;2024-02-04T15:01:20;10.80;99.90
38241;DHT22;24037;49.536;8.500;2024-02-04T15:03:46;10.80;99.90
38241;DHT22;24037;49.536;8.500;2024-02-04T15:06:12;10.70;99.90
38241;DHT22;24037;49.536;8.500;2024-02-04T15:08:38;10.70;99.90
38241;DHT22;24037;49.536;8.500;2024-02-04T15:11:04;10.70;99.90
38241;DHT22;24037;49.536;8.500;2024-02-04T15:13:31;10.70;99.90
38241;DHT22;24037;49.536;8.500;2024-02-04T15:15:57;10.60;99.90
38241;DHT22;24037;49.536;8.500;2024-02-04T15:18:24;10.60;99.90
38241;DHT22;24037;49.536;8.500;2024-02-04T15:20:50;10.60;99.90
38241;DHT22;24037;49.536;8.500;2024-02-04T15:23:16;10.60;99.90
38241;DHT22;24037;49.536;8.500;2024-02-04T15:25:43;10.50;99.90
38241;DHT22;24037;49.536;8.500;2024-02-04T15:28:11;10.50;99.90
38241;DHT22;24037;49.536;8.500;2024-02-04T15:30:39;10.50;99.90
38241;DHT22;24037;49.536;8.500;2024-02-04T15:33:05;10.50;99.90
38241;DHT22;24037;49.536;8.500;2024-02-04T15:35:32;10.50;99.90
38241;DHT22;24037;49.536;8.500;2024-02-04T15:37:59;10.50;99.90
38241;DHT22;24037;49.536;8.500;2024-02-04T15:40:25;10.50;99.90
38241;DHT22;24037;49.536;8.500;2024-02-04T15:42:52;10.50;99.90
38241;DHT22;24037;49.536;8.500;2024-02-04T15:45:18;10.50;99.90
38241;DHT22;24037;49.536;8.500;2024-02-04T15:47:49;10.50;99.90